Time;durP1;ratioP1;P1;durP2;ratioP2;P2;SDS_P1;SDS_P2;PMS_P1;PMS_P2;Temp;Humidity;BMP_temperature;BMP_pressure;BME280_temperature;BME280_humidity;BME280_pressure;Samples;Min_cycle;Max_cycle;Signal;HPM_P1;HPM_P2
2022/05/02 00:02:25;;;;;;;16.60;11.50;;;4.20;99.90;;;;;;5021883;28;20044;-94
2022/05/02 00:04:51;;;;;;;16.55;11.35;;;4.20;99.90;;;;;;5036442;28;20041;-91
2022/05/02 00:07:17;;;;;;;15.80;11.32;;;4.20;1.00;;;;;;5018216;28;20040;-92
2022/05/02 00:09:43;;;;;;;16.65;11.75;;;4.30;1.00;;;;;;5019335;28;20033;-92
2022/05/02 00:12:09;;;;;;;17.83;11.90;;;4.30;5.80;;;;;;5017359;28;20040;-92
2022/05/02 00:14:35;;;;;;;17.45;11.98;;;4.30;96.00;;;;;;5031653;28;20045;-94
2022/05/02 00:17:01;;;;;;;17.70;11.88;;;4.30;99.90;;;;;;5040507;28;20045;-91
2022/05/02 00:19:27;;;;;;;20.85;13.25;;;4.30;99.90;;;;;;5036128;28;20055;-92
2022/05/02 00:21:53;;;;;;;21.00;12.70;;;4.30;99.90;;;;;;5035743;28;20279;-91
2022/05/02 00:24:18;;;;;;;20.58;14.10;;;4.20;82.70;;;;;;5020558;28;20422;-92
2022/05/02 00:26:44;;;;;;;17.50;12.25;;;4.20;82.80;;;;;;5023689;28;20654;-94
2022/05/02 00:29:10;;;;;;;16.80;11.65;;;4.10;59.00;;;;;;5020473;28;20043;-91
2022/05/02 00:31:35;;;;;;;13.93;10.77;;;4.10;40.50;;;;;;5037018;28;20583;-92
2022/05/02 00:34:01;;;;;;;11.52;6.13;;;4.00;9.00;;;;;;5016551;28;20788;-92
2022/05/02 00:36:27;;;;;;;12.93;7.38;;;3.80;1.00;;;;;;5031273;28;20037;-92
2022/05/02 00:38:53;;;;;;;7.97;6.68;;;3.70;1.00;;;;;;5036507;28;20033;-92
2022/05/02 00:41:22;;;;;;;23.20;9.30;;;3.60;1.00;;;;;;5017161;28;20303;-93
2022/05/02 00:43:48;;;;;;;7.38;5.30;;;3.70;1.00;;;;;;5034589;28;20045;-93
2022/05/02 00:46:22;;;;;;;15.60;6.82;;;3.60;1.00;;;;;;5018260;28;20037;-92
2022/05/02 00:48:48;;;;;;;12.98;9.68;;;3.60;23.90;;;;;;5034156;28;20045;-92
2022/05/02 00:51:15;;;;;;;9.88;8.20;;;3.60;4.20;;;;;;5012207;28;20037;-91
2022/05/02 00:53:43;;;;;;;33.33;11.00;;;3.60;5.70;;;;;;5021271;28;20082;-91
2022/05/02 00:56:09;;;;;;;135.55;12.40;;;3.50;10.50;;;;;;5021803;28;20078;-91
2022/05/02 00:58:36;;;;;;;17.73;13.68;;;3.50;58.80;;;;;;5015654;28;20040;-91
2022/05/02 01:01:04;;;;;;;18.67;12.13;;;3.50;97.80;;;;;;5018083;28;20086;-91
2022/05/02 01:03:33;;;;;;;15.98;12.13;;;3.50;76.60;;;;;;5015466;28;20041;-91
2022/05/02 01:08:47;;;;;;;14.10;10.43;;;3.50;97.30;;;;;;5034210;28;20526;-91
2022/05/02 01:11:12;;;;;;;15.80;11.57;;;3.50;99.90;;;;;;5020045;28;20098;-92
2022/05/02 01:13:45;;;;;;;38.30;14.30;;;3.30;57.00;;;;;;5012081;28;20075;-91
2022/05/02 01:16:28;;;;;;;17.90;13.02;;;3.30;99.90;;;;;;5017016;28;20041;-92
2022/05/02 01:18:57;;;;;;;19.85;13.18;;;3.30;99.90;;;;;;5019957;28;20052;-90
2022/05/02 01:21:29;;;;;;;15.93;11.93;;;3.30;99.90;;;;;;5015540;28;20675;-90
2022/05/02 01:24:03;;;;;;;14.63;11.35;;;3.40;99.90;;;;;;5019226;28;20415;-90
2022/05/02 01:26:29;;;;;;;15.48;11.52;;;3.40;90.20;;;;;;5013178;28;20143;-90
2022/05/02 01:29:00;;;;;;;18.13;12.85;;;3.30;96.30;;;;;;5015390;28;20048;-91
2022/05/02 01:31:27;;;;;;;18.42;13.05;;;3.30;99.90;;;;;;5015742;28;20382;-90
2022/05/02 01:33:53;;;;;;;19.73;13.48;;;3.30;99.90;;;;;;5017118;28;20038;-91
2022/05/02 01:36:20;;;;;;;18.85;13.40;;;3.30;99.90;;;;;;5016639;28;20239;-90
2022/05/02 01:38:46;;;;;;;21.58;14.60;;;3.30;99.90;;;;;;5016292;28;20731;-91
2022/05/02 01:41:12;;;;;;;18.38;13.13;;;3.30;99.90;;;;;;5017269;28;20083;-90
2022/05/02 01:43:42;;;;;;;17.10;11.80;;;3.40;99.90;;;;;;5017451;28;20040;-90
2022/05/02 01:46:09;;;;;;;21.00;13.35;;;3.40;99.90;;;;;;5024618;28;20072;-92
2022/05/02 01:48:35;;;;;;;19.48;13.13;;;3.40;99.90;;;;;;5032873;28;20040;-90
2022/05/02 01:51:01;;;;;;;12.90;9.70;;;3.20;99.90;;;;;;5014311;28;20052;-91
2022/05/02 01:53:27;;;;;;;13.02;10.00;;;3.20;99.90;;;;;;5015872;28;20041;-90
2022/05/02 01:55:53;;;;;;;13.45;9.32;;;3.10;99.90;;;;;;5014585;28;20129;-92
2022/05/02 01:58:19;;;;;;;14.25;10.73;;;3.20;99.90;;;;;;5023121;28;20083;-90
2022/05/02 02:00:46;;;;;;;15.70;12.57;;;3.20;99.90;;;;;;5018960;28;20105;-92
2022/05/02 02:03:12;;;;;;;20.27;13.55;;;3.10;99.90;;;;;;5027693;28;20394;-91
2022/05/02 02:05:50;;;;;;;21.20;15.02;;;3.10;99.90;;;;;;5018783;28;20497;-90
2022/05/02 02:08:26;;;;;;;17.83;13.32;;;3.10;99.90;;;;;;5059611;28;20041;-90
2022/05/02 02:10:56;;;;;;;18.08;12.38;;;3.10;99.90;;;;;;5035357;28;20061;-92
2022/05/02 02:13:22;;;;;;;19.27;14.40;;;3.00;99.90;;;;;;5024583;28;20151;-92
2022/05/02 02:15:48;;;;;;;23.63;16.33;;;3.00;99.90;;;;;;5016648;28;20184;-90
2022/05/02 02:18:14;;;;;;;24.40;16.23;;;3.00;99.90;;;;;;5016907;28;20064;-91
2022/05/02 02:20:48;;;;;;;19.98;12.93;;;3.00;99.90;;;;;;5038898;28;20044;-91
2022/05/02 02:23:15;;;;;;;18.80;13.65;;;2.90;99.90;;;;;;5024333;28;20044;-92
2022/05/02 02:25:42;;;;;;;21.67;15.18;;;2.80;99.90;;;;;;5025274;28;20087;-90
2022/05/02 02:28:08;;;;;;;21.60;14.75;;;2.80;99.90;;;;;;5021416;28;20045;-90
2022/05/02 02:30:37;;;;;;;21.95;14.82;;;2.90;99.90;;;;;;5023645;28;20045;-92
2022/05/02 02:33:03;;;;;;;18.50;14.55;;;2.90;99.90;;;;;;5039351;28;20052;-90
2022/05/02 02:35:29;;;;;;;25.15;14.68;;;2.80;99.90;;;;;;5023908;28;20069;-91
2022/05/02 02:37:55;;;;;;;21.77;14.45;;;2.80;99.90;;;;;;5024796;28;20037;-91
2022/05/02 02:40:21;;;;;;;19.52;14.65;;;2.80;99.90;;;;;;5037542;28;20040;-92
2022/05/02 02:42:47;;;;;;;11.90;8.75;;;2.80;99.90;;;;;;5022017;28;20401;-92
2022/05/02 02:45:13;;;;;;;14.60;11.95;;;2.70;99.90;;;;;;5034310;28;20029;-91
2022/05/02 02:47:43;;;;;;;17.45;12.07;;;2.60;99.90;;;;;;5035190;28;20099;-91
2022/05/02 02:50:09;;;;;;;18.58;13.55;;;2.60;99.90;;;;;;5032644;28;20050;-91
2022/05/02 02:52:35;;;;;;;19.67;13.75;;;2.60;99.90;;;;;;5022926;28;20111;-92
2022/05/02 02:55:00;;;;;;;16.52;12.23;;;2.60;99.90;;;;;;5018159;28;20045;-90
2022/05/02 02:57:26;;;;;;;17.50;12.48;;;2.60;99.90;;;;;;5019723;28;20041;-92
2022/05/02 02:59:52;;;;;;;22.13;14.02;;;2.60;99.90;;;;;;5022564;28;20048;-92
2022/05/02 03:02:21;;;;;;;46.65;8.20;;;2.60;99.90;;;;;;5021349;28;20068;-91
2022/05/02 03:07:31;;;;;;;277.57;15.67;;;2.20;72.90;;;;;;5036521;28;20052;-91
2022/05/02 03:09:58;;;;;;;57.20;9.38;;;2.10;99.90;;;;;;5024716;28;20032;-92
2022/05/02 03:12:24;;;;;;;246.98;13.60;;;2.20;99.90;;;;;;5019742;28;20080;-92
2022/05/02 03:14:49;;;;;;;41.40;6.85;;;2.00;97.60;;;;;;5022187;28;20044;-91
2022/05/02 03:17:16;;;;;;;37.42;7.50;;;2.00;99.90;;;;;;5026378;28;20055;-92
2022/05/02 03:19:41;;;;;;;83.80;8.68;;;2.00;99.90;;;;;;5028109;28;20114;-92
2022/05/02 03:22:07;;;;;;;25.38;7.35;;;2.00;99.90;;;;;;5023866;28;20041;-91
2022/05/02 03:24:33;;;;;;;34.85;7.35;;;2.00;99.90;;;;;;5024628;28;20045;-92
2022/05/02 03:26:59;;;;;;;12.75;7.22;;;2.00;99.90;;;;;;5017286;28;20037;-92
2022/05/02 03:29:25;;;;;;;12.25;8.80;;;2.10;99.90;;;;;;5017126;28;20383;-92
2022/05/02 03:31:51;;;;;;;16.48;11.60;;;2.10;99.90;;;;;;5022066;28;20129;-91
2022/05/02 03:34:16;;;;;;;17.55;12.55;;;2.10;99.90;;;;;;5022622;28;20042;-92
2022/05/02 03:36:45;;;;;;;15.15;11.20;;;2.10;99.90;;;;;;5018814;28;20116;-93
2022/05/02 03:39:11;;;;;;;19.88;13.68;;;2.20;99.90;;;;;;5019417;28;20231;-92
2022/05/02 03:41:37;;;;;;;23.52;15.18;;;2.20;99.90;;;;;;5026680;28;20474;-93
2022/05/02 03:44:02;;;;;;;23.75;16.10;;;2.20;99.90;;;;;;5022641;28;20041;-93
2022/05/02 03:46:28;;;;;;;22.52;16.05;;;2.30;99.90;;;;;;5036208;28;20051;-93
2022/05/02 03:48:54;;;;;;;13.52;10.20;;;2.30;99.90;;;;;;5036252;28;20505;-92
2022/05/02 03:51:20;;;;;;;11.95;9.77;;;2.20;99.90;;;;;;5025215;28;20140;-92
2022/05/02 03:53:49;;;;;;;12.55;10.00;;;2.00;99.90;;;;;;5019337;28;20462;-93
2022/05/02 03:56:15;;;;;;;151.90;16.48;;;2.00;99.90;;;;;;5016561;28;20506;-93
2022/05/02 03:58:40;;;;;;;18.13;11.57;;;2.10;99.90;;;;;;5025247;28;20044;-93
2022/05/02 04:01:06;;;;;;;20.92;13.13;;;2.10;99.90;;;;;;5018618;28;20066;-92
2022/05/02 04:03:32;;;;;;;25.33;12.80;;;2.20;99.90;;;;;;5023877;28;20059;-92
2022/05/02 04:05:58;;;;;;;15.48;10.68;;;2.20;99.90;;;;;;5021669;28;20192;-92
2022/05/02 04:08:23;;;;;;;22.65;14.70;;;2.20;99.90;;;;;;5017967;28;20228;-92
2022/05/02 04:10:49;;;;;;;25.35;10.13;;;2.20;99.90;;;;;;5018586;28;20481;-92
2022/05/02 04:13:15;;;;;;;16.30;12.48;;;2.10;99.90;;;;;;5021244;28;20040;-92
2022/05/02 04:15:41;;;;;;;18.55;11.45;;;2.20;99.90;;;;;;5020075;28;20124;-91
2022/05/02 04:18:06;;;;;;;13.23;10.68;;;2.20;99.90;;;;;;5016573;28;20494;-91
2022/05/02 04:20:33;;;;;;;23.13;9.15;;;2.10;99.90;;;;;;5021800;28;20143;-90
2022/05/02 04:22:59;;;;;;;67.65;10.10;;;2.00;99.90;;;;;;5025096;28;20043;-92
2022/05/02 04:25:25;;;;;;;216.02;12.63;;;2.00;99.90;;;;;;5015830;28;20033;-91
2022/05/02 04:27:50;;;;;;;35.70;8.23;;;2.00;99.90;;;;;;5040523;28;22069;-91
2022/05/02 04:30:16;;;;;;;22.90;7.97;;;2.00;99.90;;;;;;5041544;28;20044;-91
2022/05/02 04:32:42;;;;;;;9.07;7.38;;;2.00;99.90;;;;;;5017289;28;20037;-90
2022/05/02 04:35:11;;;;;;;37.58;9.63;;;2.00;99.90;;;;;;5018595;28;20380;-92
2022/05/02 04:37:38;;;;;;;35.30;6.70;;;2.20;99.90;;;;;;5018304;28;20474;-92
2022/05/02 04:40:04;;;;;;;94.03;9.48;;;2.20;99.90;;;;;;5019548;28;20030;-91
2022/05/02 04:42:30;;;;;;;22.65;6.53;;;2.20;99.90;;;;;;5020808;28;20124;-92
2022/05/02 04:44:56;;;;;;;8.13;7.28;;;2.10;99.90;;;;;;5032643;28;20030;-91
2022/05/02 04:47:24;;;;;;;11.32;8.32;;;2.20;99.90;;;;;;5025064;28;20508;-91
2022/05/02 04:49:50;;;;;;;11.15;9.30;;;2.20;99.90;;;;;;5021845;28;20522;-92
2022/05/02 04:52:16;;;;;;;13.30;9.65;;;2.30;99.90;;;;;;5020953;28;20040;-93
2022/05/02 04:54:41;;;;;;;15.32;7.25;;;2.30;99.90;;;;;;5024519;28;20037;-91
2022/05/02 04:57:07;;;;;;;17.25;9.38;;;2.40;99.90;;;;;;5018108;28;20041;-90
2022/05/02 04:59:33;;;;;;;76.07;16.45;;;2.40;99.90;;;;;;5026014;28;20045;-93
2022/05/02 05:01:59;;;;;;;12.07;9.35;;;2.50;99.90;;;;;;5017177;28;20077;-91
2022/05/02 05:04:25;;;;;;;17.25;8.88;;;2.60;99.90;;;;;;5022590;28;20348;-91
2022/05/02 05:06:54;;;;;;;24.13;14.25;;;2.70;99.90;;;;;;5020023;28;20114;-92
2022/05/02 05:09:19;;;;;;;12.48;10.57;;;2.80;99.90;;;;;;5015644;28;20049;-92
2022/05/02 05:11:56;;;;;;;17.35;13.25;;;3.00;99.90;;;;;;5025247;28;20049;-90
2022/05/02 05:18:07;;;;;;;;;;;3.40;99.90;;;;;;5032456;28;20044;-90
2022/05/02 05:20:56;;;;;;;29.48;18.45;;;3.60;1.00;;;;;;5021541;28;19978;-91
2022/05/02 05:23:40;;;;;;;30.92;20.48;;;3.80;50.50;;;;;;5014856;28;20079;-91
2022/05/02 05:26:33;;;;;;;27.60;18.52;;;4.00;1.00;;;;;;5033225;28;20099;-91
2022/05/02 05:29:17;;;;;;;22.55;16.73;;;4.00;1.00;;;;;;5034352;28;20402;-92
2022/05/02 05:31:57;;;;;;;22.08;15.30;;;4.20;1.00;;;;;;5033451;28;20493;-91
2022/05/02 05:34:44;;;;;;;25.80;17.90;;;4.40;99.90;;;;;;5016947;28;20105;-91
2022/05/02 05:37:25;;;;;;;31.23;20.08;;;4.60;99.90;;;;;;5030331;28;20862;-90
2022/05/02 05:40:00;;;;;;;26.73;19.02;;;4.80;1.00;;;;;;5033101;28;20124;-90
2022/05/02 05:42:32;;;;;;;28.08;19.33;;;5.00;99.90;;;;;;5013499;28;20047;-91
2022/05/02 05:45:17;;;;;;;35.33;21.92;;;5.10;99.90;;;;;;5018201;28;20082;-90
2022/05/02 05:48:11;;;;;;;29.85;20.98;;;5.40;1.00;;;;;;5020074;28;20040;-93
2022/05/02 05:50:42;;;;;;;35.75;23.90;;;5.60;1.00;;;;;;5031370;28;20120;-90
2022/05/02 05:53:26;;;;;;;35.22;24.42;;;5.90;1.00;;;;;;5014883;28;20040;-90
2022/05/02 05:56:03;;;;;;;30.35;21.55;;;6.00;1.00;;;;;;5016895;28;20067;-91
2022/05/02 05:58:46;;;;;;;33.30;23.05;;;6.20;1.00;;;;;;5014052;28;20040;-90
2022/05/02 06:01:15;;;;;;;31.23;22.65;;;6.40;1.00;;;;;;5021108;28;20143;-91
2022/05/02 06:04:04;;;;;;;29.77;20.98;;;6.50;99.90;;;;;;5019774;28;20097;-92
2022/05/02 06:06:30;;;;;;;27.02;20.88;;;6.60;99.90;;;;;;5019204;28;20141;-91
2022/05/02 06:09:00;;;;;;;25.95;20.80;;;6.80;99.90;;;;;;5021129;28;20071;-93
2022/05/02 06:11:27;;;;;;;24.25;19.05;;;6.90;99.90;;;;;;5015643;28;20079;-91
2022/05/02 06:13:55;;;;;;;23.83;18.92;;;7.00;99.90;;;;;;5013872;28;20113;-91
2022/05/02 06:19:11;;;;;;;30.30;19.77;;;7.40;99.90;;;;;;5029553;28;20853;-92
2022/05/02 06:21:41;;;;;;;26.40;21.55;;;7.50;48.80;;;;;;5030946;28;20045;-93
2022/05/02 06:24:13;;;;;;;21.92;18.90;;;7.60;1.00;;;;;;5025709;28;20068;-93
2022/05/02 06:26:40;;;;;;;23.40;18.63;;;7.70;1.00;;;;;;5024669;28;20048;-90
2022/05/02 06:29:10;;;;;;;25.38;18.48;;;7.80;1.00;;;;;;5036626;28;20143;-92
2022/05/02 06:31:39;;;;;;;24.15;18.83;;;7.90;1.00;;;;;;5023384;28;20359;-91
2022/05/02 06:34:06;;;;;;;24.45;19.15;;;8.00;99.90;;;;;;5015748;28;20139;-92
2022/05/02 06:36:55;;;;;;;23.45;19.92;;;8.10;1.00;;;;;;5026339;28;20121;-93
2022/05/02 06:39:43;;;;;;;23.20;18.58;;;8.30;1.00;;;;;;5022506;28;20542;-91
2022/05/02 06:42:30;;;;;;;20.88;18.00;;;8.40;99.90;;;;;;5016711;28;20102;-92
2022/05/02 06:45:08;;;;;;;22.45;17.63;;;8.60;99.90;;;;;;5021503;28;20041;-93
2022/05/02 06:47:55;;;;;;;21.05;17.48;;;8.70;99.90;;;;;;5019365;28;20051;-93
2022/05/02 06:50:25;;;;;;;19.85;16.65;;;8.80;99.90;;;;;;5033916;28;20042;-92
2022/05/02 06:53:27;;;;;;;20.42;16.92;;;8.90;99.90;;;;;;5025657;28;20513;-93
2022/05/02 06:56:08;;;;;;;19.38;16.10;;;9.10;99.90;;;;;;5020765;28;20459;-91
2022/05/02 06:59:09;;;;;;;17.20;14.63;;;9.20;99.90;;;;;;5032905;28;20522;-93
2022/05/02 07:01:44;;;;;;;15.80;13.25;;;9.40;99.90;;;;;;5023784;28;20401;-92
2022/05/02 07:04:16;;;;;;;15.80;13.63;;;9.50;99.90;;;;;;5024967;28;20049;-93
2022/05/02 07:07:00;;;;;;;20.35;14.38;;;9.50;99.90;;;;;;5022187;28;20072;-92
2022/05/02 07:09:56;;;;;;;16.40;14.20;;;9.60;99.90;;;;;;5024083;28;20037;-93
2022/05/02 07:12:26;;;;;;;18.27;14.73;;;9.70;99.90;;;;;;5026901;28;20457;-94
2022/05/02 07:15:22;;;;;;;15.05;12.90;;;9.90;99.90;;;;;;5025598;28;20495;-92
2022/05/02 07:18:24;;;;;;;16.00;11.25;;;10.00;73.90;;;;;;5021385;28;20049;-93
2022/05/02 07:21:18;;;;;;;12.55;11.23;;;10.10;1.00;;;;;;5018244;28;20145;-93
2022/05/02 07:24:27;;;;;;;14.70;11.15;;;10.20;1.00;;;;;;5021109;28;20044;-93
2022/05/02 07:27:26;;;;;;;14.70;11.55;;;10.30;1.00;;;;;;5017158;28;20064;-93
2022/05/02 07:29:57;;;;;;;12.88;11.45;;;10.50;1.00;;;;;;5025583;28;20048;-93
2022/05/02 07:32:24;;;;;;;12.50;11.20;;;10.50;1.00;;;;;;5034873;28;20055;-92
2022/05/02 07:34:52;;;;;;;12.27;10.57;;;10.70;1.00;;;;;;5021431;28;20116;-91
2022/05/02 07:37:23;;;;;;;11.98;10.63;;;10.70;1.00;;;;;;5023359;28;20029;-92
2022/05/02 07:39:50;;;;;;;12.50;11.20;;;11.00;1.00;;;;;;5021594;28;20792;-93
2022/05/02 07:42:18;;;;;;;15.65;10.65;;;11.10;1.00;;;;;;5044793;28;20041;-93
2022/05/02 07:44:52;;;;;;;13.50;10.40;;;11.20;1.00;;;;;;5028045;28;20048;-90
2022/05/02 07:47:19;;;;;;;13.38;10.82;;;11.20;1.00;;;;;;5016809;28;20544;-93
2022/05/02 07:49:50;;;;;;;13.68;10.55;;;11.30;1.00;;;;;;5044095;28;20047;-91
2022/05/02 07:52:21;;;;;;;13.25;10.77;;;11.40;1.00;;;;;;5024617;28;20041;-93
2022/05/02 07:54:48;;;;;;;13.82;10.50;;;11.50;1.00;;;;;;5043502;28;20508;-92
2022/05/02 07:57:15;;;;;;;12.82;10.02;;;11.60;1.00;;;;;;5024175;28;20060;-92
2022/05/02 07:59:46;;;;;;;11.40;10.05;;;11.70;1.00;;;;;;5027870;28;20044;-93
2022/05/02 08:02:16;;;;;;;13.45;9.85;;;11.90;99.90;;;;;;5021818;28;20079;-92
2022/05/02 08:04:47;;;;;;;11.60;9.50;;;12.10;99.90;;;;;;5025294;28;20104;-93
2022/05/02 08:07:52;;;;;;;10.60;9.20;;;12.10;99.90;;;;;;5019576;28;20118;-93
2022/05/02 08:10:37;;;;;;;11.90;8.80;;;12.20;99.90;;;;;;4986638;28;20064;-93
2022/05/02 08:13:09;;;;;;;10.40;9.15;;;12.20;99.90;;;;;;4968545;28;20050;-93
2022/05/02 08:16:02;;;;;;;9.60;8.52;;;12.30;99.90;;;;;;4970820;28;20054;-92
2022/05/02 08:18:47;;;;;;;12.65;10.02;;;12.10;99.90;;;;;;4985122;28;20057;-93
2022/05/02 08:21:24;;;;;;;10.48;8.68;;;12.30;99.90;;;;;;4966787;28;20527;-92
2022/05/02 08:27:31;;;;;;;9.80;8.60;;;12.30;99.90;;;;;;4983083;28;20038;-93
2022/05/02 08:30:25;;;;;;;12.05;8.93;;;12.50;99.90;;;;;;5052357;28;20033;-94
2022/05/02 08:33:05;;;;;;;10.50;8.30;;;12.60;99.90;;;;;;5023391;28;20033;-92
2022/05/02 08:35:53;;;;;;;9.10;8.13;;;12.80;99.90;;;;;;5023371;28;20037;-92
2022/05/02 08:38:43;;;;;;;10.10;8.18;;;13.00;99.90;;;;;;5018922;28;20034;-93
2022/05/02 08:41:27;;;;;;;9.50;7.85;;;13.20;99.90;;;;;;5019409;28;20125;-91
2022/05/02 08:44:31;;;;;;;12.45;8.95;;;13.30;99.90;;;;;;5036842;28;20044;-93
2022/05/02 08:47:30;;;;;;;10.05;8.13;;;12.90;99.90;;;;;;5039927;28;20397;-91
2022/05/02 08:50:08;;;;;;;10.05;8.13;;;13.10;99.90;;;;;;5023386;28;20043;-91
2022/05/02 08:53:02;;;;;;;9.85;7.72;;;13.20;99.90;;;;;;5026053;28;20182;-92
2022/05/02 08:56:00;;;;;;;12.02;8.40;;;13.30;99.90;;;;;;5025058;28;20159;-92
2022/05/02 08:58:57;;;;;;;14.02;8.80;;;13.20;99.90;;;;;;5022596;28;20063;-93
2022/05/02 09:01:41;;;;;;;9.98;8.25;;;13.60;99.90;;;;;;5021690;28;20524;-93
2022/05/02 09:04:38;;;;;;;8.85;7.93;;;13.70;99.90;;;;;;5053754;28;20056;-92
2022/05/02 09:07:34;;;;;;;11.18;8.60;;;13.90;99.90;;;;;;5021749;28;20091;-91
2022/05/02 09:10:17;;;;;;;10.35;8.40;;;13.70;99.90;;;;;;5016295;28;20057;-91
2022/05/02 09:12:54;;;;;;;11.52;8.57;;;14.00;99.90;;;;;;5033689;28;20045;-91
2022/05/02 09:15:38;;;;;;;10.82;7.93;;;14.00;99.90;;;;;;5041875;28;20040;-92
2022/05/02 09:18:28;;;;;;;10.20;7.68;;;14.20;99.90;;;;;;5018171;28;20057;-92
2022/05/02 09:21:17;;;;;;;11.48;9.10;;;14.20;99.90;;;;;;5018386;28;20056;-92
2022/05/02 09:24:12;;;;;;;14.57;9.02;;;14.30;99.90;;;;;;5015217;28;20037;-92
2022/05/02 09:26:58;;;;;;;9.75;8.73;;;14.60;99.90;;;;;;5014765;28;20051;-91
2022/05/02 09:29:50;;;;;;;10.00;8.68;;;14.80;99.90;;;;;;5030831;28;20379;-92
2022/05/02 09:32:23;;;;;;;9.88;8.55;;;14.80;99.90;;;;;;5022464;28;20033;-92
2022/05/02 09:35:03;;;;;;;9.25;8.13;;;14.30;99.90;;;;;;5009550;28;20051;-91
2022/05/02 09:37:40;;;;;;;9.40;7.78;;;14.30;99.90;;;;;;5020566;28;20120;-92
2022/05/02 09:40:17;;;;;;;10.27;7.85;;;13.70;99.90;;;;;;5018927;28;20033;-91
2022/05/02 09:42:51;;;;;;;16.83;7.78;;;13.40;99.90;;;;;;5022139;28;20128;-91
2022/05/02 09:52:11;;;;;;;10.25;7.75;;;14.70;99.90;;;;;;5037802;28;20113;-91
2022/05/02 09:58:01;;;;;;;8.68;7.68;;;14.50;99.90;;;;;;5037584;28;20428;-92
2022/05/02 10:03:36;;;;;;;9.63;7.93;;;14.80;99.90;;;;;;5032476;28;20048;-92
2022/05/02 10:06:06;;;;;;;12.02;8.38;;;14.80;99.90;;;;;;5015467;28;20039;-92
2022/05/02 10:08:47;;;;;;;11.93;7.95;;;15.00;99.90;;;;;;5016810;28;20131;-91
2022/05/02 10:11:26;;;;;;;10.75;8.32;;;15.00;99.90;;;;;;5017558;28;20124;-91
2022/05/02 10:14:02;;;;;;;10.10;7.63;;;15.20;99.90;;;;;;5017319;28;20041;-91
2022/05/02 10:16:47;;;;;;;10.02;7.95;;;15.70;99.90;;;;;;5029496;28;20053;-91
2022/05/02 10:19:18;;;;;;;10.50;7.97;;;15.10;99.90;;;;;;5017514;28;20088;-91
2022/05/02 10:22:14;;;;;;;10.38;7.90;;;15.50;99.90;;;;;;5032133;28;20046;-91
2022/05/02 10:24:54;;;;;;;9.00;7.80;;;15.30;99.90;;;;;;4961022;28;20092;-92
2022/05/02 10:27:32;;;;;;;9.50;7.18;;;15.80;99.90;;;;;;5039941;28;20125;-91
2022/05/02 10:30:12;;;;;;;11.88;7.15;;;15.50;99.90;;;;;;5024549;28;20033;-91
2022/05/02 10:32:50;;;;;;;10.75;7.65;;;15.80;99.90;;;;;;5026599;28;20554;-92
2022/05/02 10:35:18;;;;;;;10.57;7.80;;;15.80;99.90;;;;;;5021312;28;20498;-91
2022/05/02 10:38:02;;;;;;;9.00;8.10;;;15.80;99.90;;;;;;5027037;28;20036;-92
2022/05/02 10:40:39;;;;;;;9.85;7.13;;;15.80;99.90;;;;;;5038329;28;20037;-90
2022/05/02 10:43:09;;;;;;;9.85;7.10;;;16.50;99.90;;;;;;5035097;28;20053;-91
2022/05/02 10:45:37;;;;;;;6.93;6.20;;;16.40;99.90;;;;;;5027023;28;20033;-91
2022/05/02 10:48:40;;;;;;;7.75;5.82;;;16.30;99.90;;;;;;5025089;28;20112;-91
2022/05/02 10:51:35;;;;;;;9.27;6.57;;;16.40;99.90;;;;;;5020380;28;20044;-90
2022/05/02 10:54:11;;;;;;;8.05;6.10;;;16.60;99.90;;;;;;5021666;28;20072;-91
2022/05/02 10:56:43;;;;;;;8.88;6.60;;;17.30;99.90;;;;;;5019762;28;20044;-91
2022/05/02 10:59:14;;;;;;;9.20;6.68;;;17.60;99.90;;;;;;5021268;28;20033;-92
2022/05/02 11:02:22;;;;;;;6.65;5.93;;;17.40;99.90;;;;;;5021381;28;20045;-91
2022/05/02 11:05:11;;;;;;;6.18;5.57;;;17.60;99.90;;;;;;5014525;28;20065;-90
2022/05/02 11:08:04;;;;;;;7.32;5.45;;;17.40;99.90;;;;;;5035230;28;20132;-91
2022/05/02 11:10:42;;;;;;;8.82;5.70;;;18.20;99.90;;;;;;5021419;28;20120;-90
2022/05/02 11:13:16;;;;;;;7.10;5.43;;;18.10;99.90;;;;;;5024710;28;20464;-91
2022/05/02 11:16:06;;;;;;;8.20;6.43;;;18.80;99.90;;;;;;5040353;28;20041;-90
2022/05/02 11:21:35;;;;;;;6.70;5.50;;;18.70;99.90;;;;;;5036225;28;20564;-90
2022/05/02 11:24:38;;;;;;;6.78;6.05;;;19.20;99.90;;;;;;5020015;28;20048;-90
2022/05/02 11:27:35;;;;;;;7.13;5.55;;;19.50;99.90;;;;;;5035247;28;20814;-92
2022/05/02 11:30:09;;;;;;;7.05;5.45;;;18.40;99.90;;;;;;5019255;28;20072;-91
2022/05/02 11:33:05;;;;;;;7.35;6.47;;;18.00;99.90;;;;;;5022608;28;20056;-91
2022/05/02 11:35:33;;;;;;;9.43;7.63;;;18.40;99.90;;;;;;5034190;28;20040;-91
2022/05/02 11:38:05;;;;;;;8.30;7.38;;;18.00;99.90;;;;;;5037786;28;20482;-89
2022/05/02 11:40:34;;;;;;;7.65;6.70;;;17.90;99.90;;;;;;5022507;28;20172;-89
2022/05/02 11:43:03;;;;;;;11.15;7.45;;;17.50;99.90;;;;;;5020097;28;20090;-91
2022/05/02 11:45:50;;;;;;;9.85;7.78;;;16.60;99.90;;;;;;5026413;28;20033;-91
2022/05/02 11:48:53;;;;;;;9.20;7.18;;;17.10;99.90;;;;;;5020041;28;20037;-90
2022/05/02 11:51:37;;;;;;;7.68;6.88;;;17.20;99.90;;;;;;5032850;28;20060;-90
2022/05/02 11:54:12;;;;;;;8.85;6.85;;;16.70;99.90;;;;;;5023640;28;20132;-90
2022/05/02 11:56:58;;;;;;;9.00;6.95;;;17.00;99.90;;;;;;5025435;28;20134;-90
2022/05/02 11:59:32;;;;;;;9.88;6.53;;;17.90;99.90;;;;;;5027227;28;20041;-91
2022/05/02 12:02:09;;;;;;;9.10;6.45;;;17.80;99.90;;;;;;5020214;28;20029;-90
2022/05/02 12:04:40;;;;;;;49.47;10.48;;;17.90;99.90;;;;;;5033189;28;20053;-90
2022/05/02 12:07:13;;;;;;;7.93;6.50;;;18.60;99.90;;;;;;5039071;28;20040;-91
2022/05/02 12:09:39;;;;;;;8.05;5.93;;;18.60;99.90;;;;;;5016489;28;20147;-91
2022/05/02 12:12:07;;;;;;;8.82;6.63;;;19.20;99.90;;;;;;5031280;28;20077;-91
2022/05/02 12:14:33;;;;;;;11.57;6.15;;;18.10;99.90;;;;;;5021959;28;20570;-90
2022/05/02 12:17:02;;;;;;;7.47;5.70;;;18.30;99.90;;;;;;5049047;28;20037;-90
2022/05/02 12:19:30;;;;;;;7.07;5.43;;;18.20;99.90;;;;;;5017511;28;20049;-91
2022/05/02 12:21:59;;;;;;;7.43;5.40;;;18.30;99.90;;;;;;5017305;28;20083;-91
2022/05/02 12:24:33;;;;;;;9.68;6.25;;;18.90;99.90;;;;;;5019795;28;20144;-91
2022/05/02 12:26:59;;;;;;;8.70;6.30;;;19.30;99.90;;;;;;5033920;28;20037;-90
2022/05/02 12:29:27;;;;;;;8.70;5.93;;;19.60;99.90;;;;;;5019873;28;20041;-92
2022/05/02 12:32:02;;;;;;;7.82;6.40;;;20.10;99.90;;;;;;5036225;28;20037;-92
2022/05/02 12:34:35;;;;;;;10.95;6.25;;;19.40;99.90;;;;;;5015824;28;20041;-90
2022/05/02 12:37:23;;;;;;;7.40;6.00;;;18.50;99.90;;;;;;5036019;28;20099;-91
2022/05/02 12:40:08;;;;;;;7.18;6.40;;;18.70;99.90;;;;;;5029198;28;20036;-91
2022/05/02 12:42:41;;;;;;;8.98;6.40;;;18.70;99.90;;;;;;5020087;28;20048;-91
2022/05/02 12:45:11;;;;;;;8.27;6.45;;;18.60;99.90;;;;;;5020719;28;20494;-90
2022/05/02 12:47:55;;;;;;;9.43;6.78;;;18.10;99.90;;;;;;5033302;28;20143;-91
2022/05/02 12:50:29;;;;;;;9.27;6.23;;;18.40;99.90;;;;;;5021456;28;20044;-92
2022/05/02 12:53:05;;;;;;;6.57;5.80;;;18.70;99.90;;;;;;5032527;28;20505;-91
2022/05/02 12:55:34;;;;;;;7.63;6.25;;;19.50;99.90;;;;;;5032396;28;20036;-93
2022/05/02 13:01:01;;;;;;;10.02;6.68;;;18.00;99.90;;;;;;5033518;28;20342;-91
2022/05/02 13:03:28;;;;;;;7.38;6.10;;;18.00;99.90;;;;;;5026112;28;20033;-91
2022/05/02 13:05:56;;;;;;;7.07;5.63;;;18.00;99.90;;;;;;5016937;28;20141;-91
2022/05/02 13:08:38;;;;;;;6.82;5.90;;;18.90;99.90;;;;;;5032673;28;20153;-90
2022/05/02 13:11:09;;;;;;;6.55;5.35;;;19.10;99.90;;;;;;5032283;28;20336;-92
2022/05/02 13:13:47;;;;;;;6.07;5.32;;;19.60;99.90;;;;;;5039998;28;20041;-91
2022/05/02 13:16:21;;;;;;;6.32;5.32;;;18.90;99.90;;;;;;5014071;28;20025;-92
2022/05/02 13:18:48;;;;;;;6.85;5.47;;;19.70;99.90;;;;;;5014452;28;20121;-91
2022/05/02 13:21:16;;;;;;;6.65;5.40;;;19.70;99.90;;;;;;5052210;28;20054;-91
2022/05/02 13:23:44;;;;;;;7.18;5.90;;;19.70;99.90;;;;;;5019061;28;20042;-93
2022/05/02 13:26:33;;;;;;;5.10;4.60;;;19.50;99.90;;;;;;5018073;28;20056;-92
2022/05/02 13:29:26;;;;;;;7.47;5.40;;;19.40;99.90;;;;;;5024084;28;20051;-90
2022/05/02 13:32:06;;;;;;;6.32;4.88;;;19.10;99.90;;;;;;5013411;28;20044;-91
2022/05/02 13:34:43;;;;;;;7.20;5.40;;;18.10;99.90;;;;;;5039232;28;20042;-90
2022/05/02 13:37:20;;;;;;;5.75;4.97;;;18.60;99.90;;;;;;5033032;28;20052;-91
2022/05/02 13:39:56;;;;;;;5.40;4.80;;;19.00;99.90;;;;;;5015815;28;20115;-91
2022/05/02 13:42:36;;;;;;;7.70;5.15;;;19.90;99.90;;;;;;5022236;28;20045;-91
2022/05/02 13:45:32;;;;;;;7.25;5.68;;;19.20;99.90;;;;;;5016106;28;20099;-90
2022/05/02 13:48:22;;;;;;;7.57;6.07;;;18.20;99.90;;;;;;5032717;28;20044;-90
2022/05/02 13:51:00;;;;;;;6.70;5.20;;;18.20;99.90;;;;;;5039017;28;20045;-91
2022/05/02 13:53:45;;;;;;;6.32;5.45;;;18.90;99.90;;;;;;5022635;28;20193;-90